Time;durP1;ratioP1;P1;durP2;ratioP2;P2;SDS_P1;SDS_P2;PMS_P1;PMS_P2;Temp;Humidity;BMP_temperature;BMP_pressure;BME280_temperature;BME280_humidity;BME280_pressure;Samples;Min_cycle;Max_cycle;Signal;HPM_P1;HPM_P2
2021/03/18 00:02:17;;;;;;;4.85;4.00;;;5.70;99.90;;;;;;5073538;28;20033;-79
2021/03/18 00:04:42;;;;;;;3.72;2.97;;;5.70;99.90;;;;;;5092345;28;20032;-79
2021/03/18 00:07:08;;;;;;;3.30;2.88;;;5.80;99.90;;;;;;5091927;28;20024;-79
2021/03/18 00:09:34;;;;;;;3.08;2.72;;;5.80;99.90;;;;;;5094146;28;20024;-79
2021/03/18 00:11:59;;;;;;;3.00;2.55;;;5.80;99.90;;;;;;5095732;28;20031;-79
2021/03/18 00:14:26;;;;;;;2.97;2.67;;;5.70;99.90;;;;;;5095649;28;20024;-79
2021/03/18 00:16:52;;;;;;;3.40;2.92;;;5.70;99.90;;;;;;5095864;28;20028;-78
2021/03/18 00:19:18;;;;;;;3.75;3.20;;;5.80;99.90;;;;;;5095552;28;20020;-78
2021/03/18 00:21:44;;;;;;;7.15;6.05;;;5.80;99.90;;;;;;5094639;28;20349;-78
2021/03/18 00:24:10;;;;;;;3.85;3.15;;;5.90;99.90;;;;;;5095369;28;20103;-79
2021/03/18 00:26:36;;;;;;;4.18;3.75;;;5.90;99.90;;;;;;5095873;28;20052;-79
2021/03/18 00:29:04;;;;;;;4.65;4.20;;;5.90;99.90;;;;;;5095765;28;20028;-79
2021/03/18 00:31:34;;;;;;;3.95;3.50;;;6.00;99.90;;;;;;5095804;28;20447;-79
2021/03/18 00:34:00;;;;;;;3.80;3.50;;;6.00;99.90;;;;;;5095593;28;20053;-79
2021/03/18 00:36:26;;;;;;;4.03;3.60;;;6.00;99.90;;;;;;5094918;28;20035;-79
2021/03/18 00:38:52;;;;;;;4.00;3.55;;;6.10;99.90;;;;;;5095714;28;20020;-79
2021/03/18 00:41:19;;;;;;;5.28;3.85;;;6.00;99.90;;;;;;5095798;28;20028;-79
2021/03/18 00:43:45;;;;;;;3.53;3.22;;;6.00;99.90;;;;;;5096042;28;20028;-79
2021/03/18 00:46:11;;;;;;;4.63;3.85;;;6.00;99.90;;;;;;5094894;28;20555;-79
2021/03/18 00:48:37;;;;;;;4.10;3.70;;;5.90;99.90;;;;;;5095672;28;20020;-79
2021/03/18 00:51:16;;;;;;;5.22;4.00;;;5.80;99.90;;;;;;5095284;28;20487;-79
2021/03/18 00:53:44;;;;;;;4.43;4.03;;;5.80;99.90;;;;;;5095403;28;20483;-79
2021/03/18 00:56:12;;;;;;;4.25;3.80;;;5.70;99.90;;;;;;5095350;28;20059;-79
2021/03/18 00:58:39;;;;;;;4.40;4.00;;;5.80;99.90;;;;;;5095441;28;20114;-79
2021/03/18 01:01:05;;;;;;;4.55;3.97;;;5.80;99.90;;;;;;5095292;28;20107;-79
2021/03/18 01:03:33;;;;;;;6.22;4.00;;;5.80;99.90;;;;;;5094998;28;20052;-79
2021/03/18 01:06:05;;;;;;;4.65;4.15;;;6.00;99.90;;;;;;5094801;28;20036;-79
2021/03/18 01:08:33;;;;;;;4.40;3.80;;;5.80;99.90;;;;;;5095358;28;20035;-79
2021/03/18 01:11:23;;;;;;;4.70;4.20;;;6.30;99.90;;;;;;5095206;28;20043;-79
2021/03/18 01:13:52;;;;;;;4.47;4.03;;;5.80;99.90;;;;;;5082137;28;20040;-79
2021/03/18 01:16:23;;;;;;;4.38;3.97;;;5.70;99.90;;;;;;5083228;28;20029;-79
2021/03/18 01:18:51;;;;;;;4.55;4.15;;;5.60;99.90;;;;;;5074502;28;20028;-79
2021/03/18 01:21:18;;;;;;;4.90;4.40;;;5.60;99.90;;;;;;5073544;28;20118;-78
2021/03/18 01:23:46;;;;;;;5.50;4.65;;;5.50;99.90;;;;;;5074316;28;20032;-78
2021/03/18 01:26:11;;;;;;;5.88;5.03;;;6.00;99.90;;;;;;5074550;28;20075;-78
2021/03/18 01:28:38;;;;;;;5.32;4.82;;;5.50;99.90;;;;;;5078438;28;20020;-78
2021/03/18 01:31:05;;;;;;;5.43;4.68;;;5.80;99.90;;;;;;5076670;28;20432;-78
2021/03/18 01:33:31;;;;;;;5.15;4.65;;;5.60;99.90;;;;;;5091877;28;20220;-78
2021/03/18 01:35:59;;;;;;;5.57;5.05;;;5.50;99.90;;;;;;5074435;28;20028;-78
2021/03/18 01:38:26;;;;;;;5.07;4.57;;;5.90;99.90;;;;;;5074325;28;20028;-78
2021/03/18 01:40:52;;;;;;;6.28;4.93;;;5.50;99.90;;;;;;5074353;28;20052;-78
2021/03/18 01:43:18;;;;;;;5.63;5.00;;;5.30;99.90;;;;;;5078374;28;20056;-78
2021/03/18 01:45:43;;;;;;;5.22;4.72;;;5.40;99.90;;;;;;5079439;28;20029;-78
2021/03/18 01:48:09;;;;;;;5.32;4.70;;;5.30;99.90;;;;;;5073805;28;20025;-78
2021/03/18 01:50:37;;;;;;;5.70;5.00;;;5.30;99.90;;;;;;5074201;28;20024;-78
2021/03/18 01:53:03;;;;;;;5.32;4.80;;;5.60;99.90;;;;;;5074192;28;20024;-78
2021/03/18 01:55:38;;;;;;;6.00;5.40;;;5.40;99.90;;;;;;5056147;28;20595;-78
2021/03/18 01:58:05;;;;;;;5.55;4.85;;;5.30;99.90;;;;;;5078895;28;20080;-78
2021/03/18 02:00:31;;;;;;;5.88;5.28;;;5.10;99.90;;;;;;5094147;28;20032;-78
2021/03/18 02:02:58;;;;;;;5.75;4.57;;;5.10;99.90;;;;;;5093349;28;20032;-78
2021/03/18 02:05:25;;;;;;;5.78;5.18;;;5.30;99.90;;;;;;5094222;28;20069;-78
2021/03/18 02:07:52;;;;;;;5.75;5.18;;;5.10;99.90;;;;;;5094107;28;20387;-78
2021/03/18 02:10:19;;;;;;;6.38;5.70;;;5.10;99.90;;;;;;5093904;28;20429;-78
2021/03/18 02:12:45;;;;;;;5.88;5.22;;;5.40;99.90;;;;;;5093103;28;20013;-78
2021/03/18 02:15:11;;;;;;;6.50;5.80;;;5.60;99.90;;;;;;5094100;28;20047;-78
2021/03/18 02:18:10;;;;;;;6.32;5.70;;;5.00;99.90;;;;;;5093717;28;20834;-78
2021/03/18 02:20:54;;;;;;;6.53;5.82;;;5.60;99.90;;;;;;4992229;28;20062;-78
2021/03/18 02:23:28;;;;;;;6.65;5.95;;;5.00;99.90;;;;;;4992071;28;20038;-78
2021/03/18 02:26:26;;;;;;;6.97;5.90;;;5.00;99.90;;;;;;4975824;28;20061;-78
2021/03/18 02:29:30;;;;;;;7.25;6.53;;;5.10;99.90;;;;;;4991824;28;20034;-78
2021/03/18 02:32:17;;;;;;;6.97;6.20;;;5.00;99.90;;;;;;4991499;28;20038;-78
2021/03/18 02:34:59;;;;;;;7.00;6.30;;;4.90;99.90;;;;;;4979575;28;20039;-78
2021/03/18 02:37:30;;;;;;;8.52;6.97;;;4.90;99.90;;;;;;4972235;28;20487;-78
2021/03/18 02:40:18;;;;;;;9.32;6.57;;;5.60;99.90;;;;;;4971867;28;20031;-78
2021/03/18 02:42:47;;;;;;;8.07;6.72;;;5.50;99.90;;;;;;4980325;28;20066;-78
2021/03/18 02:45:14;;;;;;;8.73;6.82;;;5.20;99.90;;;;;;4990973;28;20027;-78
2021/03/18 02:47:41;;;;;;;8.40;7.00;;;4.90;99.90;;;;;;4991782;28;20034;-78
2021/03/18 02:50:08;;;;;;;8.50;7.18;;;5.40;99.90;;;;;;4991618;28;20090;-78
2021/03/18 02:52:35;;;;;;;8.75;7.13;;;4.80;99.90;;;;;;4991804;28;20038;-78
2021/03/18 02:55:06;;;;;;;9.40;7.72;;;5.00;99.90;;;;;;4991854;28;20049;-79
2021/03/18 02:57:35;;;;;;;8.45;6.80;;;4.60;99.90;;;;;;5034671;28;20090;-78
2021/03/18 03:00:08;;;;;;;8.73;7.18;;;4.70;99.90;;;;;;5092939;28;20042;-78
2021/03/18 03:02:35;;;;;;;8.55;6.97;;;4.60;99.90;;;;;;5092871;28;20042;-78
2021/03/18 03:05:04;;;;;;;8.57;7.47;;;5.10;99.90;;;;;;5093242;28;20028;-78
2021/03/18 03:07:30;;;;;;;8.93;7.80;;;4.50;99.90;;;;;;5093193;28;20403;-78
2021/03/18 03:09:58;;;;;;;8.85;7.57;;;4.90;99.90;;;;;;5075151;28;20072;-78
2021/03/18 03:12:27;;;;;;;9.20;8.02;;;4.80;99.90;;;;;;5092028;28;20039;-78
2021/03/18 03:14:54;;;;;;;10.52;8.57;;;4.60;99.90;;;;;;5092745;28;20479;-78
2021/03/18 03:17:22;;;;;;;10.23;8.15;;;4.60;99.90;;;;;;5093048;28;20025;-78
2021/03/18 03:19:48;;;;;;;9.07;8.05;;;4.70;99.90;;;;;;5092904;28;20032;-78
2021/03/18 03:22:14;;;;;;;9.13;7.82;;;5.00;99.90;;;;;;5092841;28;20080;-78
2021/03/18 03:24:43;;;;;;;10.20;7.80;;;5.40;99.90;;;;;;5093219;28;20345;-78
2021/03/18 03:27:10;;;;;;;10.70;8.85;;;5.10;99.90;;;;;;5092688;28;20021;-78
2021/03/18 03:29:36;;;;;;;9.77;8.07;;;5.30;99.90;;;;;;5092167;28;20020;-78
2021/03/18 03:32:04;;;;;;;10.73;8.63;;;4.90;99.90;;;;;;5092873;28;20028;-78
2021/03/18 03:34:32;;;;;;;9.80;8.45;;;4.90;99.90;;;;;;5092533;28;20028;-78
2021/03/18 03:36:57;;;;;;;12.40;8.50;;;5.20;99.90;;;;;;5092895;28;20039;-78
2021/03/18 03:39:23;;;;;;;10.82;8.70;;;5.10;99.90;;;;;;5092835;28;20028;-78
2021/03/18 03:41:49;;;;;;;10.85;8.55;;;4.80;99.90;;;;;;5092807;28;20031;-78
2021/03/18 03:44:14;;;;;;;9.30;7.88;;;4.70;99.90;;;;;;5093331;28;20463;-78
2021/03/18 03:46:40;;;;;;;9.80;7.95;;;5.10;99.90;;;;;;5096830;28;20179;-78
2021/03/18 03:49:08;;;;;;;11.43;8.52;;;5.30;99.90;;;;;;5096752;28;20074;-78
2021/03/18 03:52:00;;;;;;;10.73;8.35;;;4.80;99.90;;;;;;5096414;28;20056;-78
2021/03/18 03:54:28;;;;;;;9.80;8.23;;;4.80;99.90;;;;;;5096485;28;20024;-78
2021/03/18 03:57:04;;;;;;;10.27;8.05;;;4.80;99.90;;;;;;5095622;28;20549;-78
2021/03/18 03:59:34;;;;;;;10.20;8.45;;;4.90;99.90;;;;;;5095962;28;20070;-78
2021/03/18 04:02:04;;;;;;;10.25;8.82;;;5.40;99.90;;;;;;5096383;28;20470;-78
2021/03/18 04:04:34;;;;;;;9.00;8.02;;;4.80;99.90;;;;;;5096354;28;20122;-78
2021/03/18 04:07:05;;;;;;;10.20;8.30;;;5.30;99.90;;;;;;5096332;28;20073;-78
2021/03/18 04:09:33;;;;;;;9.40;8.30;;;4.60;99.90;;;;;;5096186;28;20055;-78
2021/03/18 04:12:01;;;;;;;9.38;8.23;;;5.10;99.90;;;;;;5096088;28;20480;-78
2021/03/18 04:14:31;;;;;;;9.95;8.43;;;5.10;99.90;;;;;;5095897;28;20054;-78
2021/03/18 04:17:02;;;;;;;10.75;8.40;;;5.10;99.90;;;;;;5096085;28;20482;-78
2021/03/18 04:19:28;;;;;;;10.00;8.50;;;5.30;99.90;;;;;;5095837;28;20020;-78
2021/03/18 04:21:56;;;;;;;11.43;9.00;;;5.10;99.90;;;;;;5096171;28;20024;-78
2021/03/18 04:24:23;;;;;;;9.98;8.50;;;4.80;99.90;;;;;;5095896;28;20016;-78
2021/03/18 04:26:49;;;;;;;10.55;8.95;;;5.10;99.90;;;;;;5094620;28;20028;-78
2021/03/18 04:29:17;;;;;;;10.55;8.52;;;5.30;99.90;;;;;;5096249;28;20027;-78
2021/03/18 04:31:43;;;;;;;11.35;8.80;;;4.60;99.90;;;;;;5095591;28;20047;-78
2021/03/18 04:34:11;;;;;;;11.15;9.30;;;4.60;99.90;;;;;;5095610;28;20073;-78
2021/03/18 04:36:38;;;;;;;10.60;9.05;;;4.90;99.90;;;;;;5095819;28;20028;-78
2021/03/18 04:39:06;;;;;;;11.25;9.43;;;4.90;99.90;;;;;;5077580;28;20024;-78
2021/03/18 04:41:33;;;;;;;12.63;9.18;;;4.40;99.90;;;;;;5094752;28;20024;-78
2021/03/18 04:44:01;;;;;;;11.70;8.85;;;4.70;99.90;;;;;;5095544;28;20031;-78
2021/03/18 04:46:28;;;;;;;10.55;9.10;;;5.10;99.90;;;;;;5095326;28;20516;-78
2021/03/18 04:48:58;;;;;;;10.60;9.13;;;5.00;99.90;;;;;;5094729;28;20031;-78
2021/03/18 04:51:24;;;;;;;10.80;8.85;;;5.10;99.90;;;;;;5095569;28;20034;-78
2021/03/18 04:53:49;;;;;;;11.60;8.68;;;4.90;99.90;;;;;;5095668;28;20024;-78
2021/03/18 04:56:17;;;;;;;10.25;8.60;;;5.00;99.90;;;;;;5094753;28;20031;-78
2021/03/18 04:58:44;;;;;;;9.45;8.45;;;4.90;99.90;;;;;;5095293;28;20032;-78
2021/03/18 05:01:12;;;;;;;10.55;9.38;;;4.60;99.90;;;;;;5095422;28;20072;-78
2021/03/18 05:03:39;;;;;;;10.80;8.82;;;5.00;99.90;;;;;;5095020;28;20052;-77
2021/03/18 05:06:08;;;;;;;11.52;9.45;;;4.80;99.90;;;;;;5095229;28;20044;-78
2021/03/18 05:08:34;;;;;;;11.70;9.32;;;5.10;99.90;;;;;;5094938;28;20062;-78
2021/03/18 05:11:00;;;;;;;10.40;9.05;;;5.10;99.90;;;;;;5093565;28;20427;-78
2021/03/18 05:13:28;;;;;;;12.43;9.63;;;4.60;99.90;;;;;;5094766;28;20072;-78
2021/03/18 05:15:56;;;;;;;13.52;10.25;;;5.00;99.90;;;;;;5094767;28;20028;-78
2021/03/18 05:18:23;;;;;;;12.70;9.90;;;4.50;99.90;;;;;;5095246;28;20036;-78
2021/03/18 05:20:50;;;;;;;14.75;10.73;;;4.60;99.90;;;;;;5095072;28;20024;-78
2021/03/18 05:23:16;;;;;;;13.30;9.45;;;5.00;99.90;;;;;;5095124;28;20055;-78
2021/03/18 05:25:43;;;;;;;12.02;9.70;;;4.80;99.90;;;;;;5094002;28;20032;-78
2021/03/18 05:28:09;;;;;;;14.77;10.32;;;5.10;99.90;;;;;;5094712;28;20016;-78
2021/03/18 05:30:35;;;;;;;13.88;10.23;;;5.10;99.90;;;;;;5094749;28;20467;-78
2021/03/18 05:33:03;;;;;;;13.82;10.27;;;5.00;99.90;;;;;;5094954;28;20032;-78
2021/03/18 05:35:30;;;;;;;12.60;9.85;;;4.50;99.90;;;;;;5075189;28;20032;-78
2021/03/18 05:37:56;;;;;;;11.38;9.00;;;5.10;99.90;;;;;;5074215;28;20078;-78
2021/03/18 05:40:22;;;;;;;12.75;9.77;;;5.10;99.90;;;;;;5082332;28;20040;-78
2021/03/18 05:42:48;;;;;;;11.50;9.88;;;4.60;99.90;;;;;;5094289;28;20032;-78
2021/03/18 05:45:15;;;;;;;14.73;10.32;;;4.60;99.90;;;;;;5094548;28;20024;-78
2021/03/18 05:47:41;;;;;;;12.15;9.50;;;4.40;99.90;;;;;;5094325;28;20431;-78
2021/03/18 05:50:13;;;;;;;12.57;9.88;;;4.90;99.90;;;;;;5094467;28;20107;-78
2021/03/18 05:52:40;;;;;;;12.27;10.02;;;4.40;99.90;;;;;;5094271;28;20373;-78
2021/03/18 05:55:07;;;;;;;12.88;10.20;;;4.80;99.90;;;;;;5093400;28;20107;-78
2021/03/18 05:57:34;;;;;;;13.27;9.90;;;4.40;99.90;;;;;;5093711;28;20476;-78
2021/03/18 06:00:03;;;;;;;12.70;10.23;;;4.90;99.90;;;;;;5094383;28;20111;-78
2021/03/18 06:02:34;;;;;;;14.85;10.75;;;4.90;99.90;;;;;;5093438;28;20035;-78
2021/03/18 06:05:08;;;;;;;15.63;10.95;;;4.40;99.90;;;;;;5093915;28;20056;-78
2021/03/18 06:07:36;;;;;;;15.57;10.82;;;4.50;99.90;;;;;;5093465;28;20484;-78
2021/03/18 06:10:03;;;;;;;14.32;10.30;;;4.40;99.90;;;;;;5093537;28;20463;-78
2021/03/18 06:12:28;;;;;;;14.02;10.88;;;4.40;99.90;;;;;;5094046;28;20058;-78
2021/03/18 06:14:54;;;;;;;14.93;10.45;;;4.50;99.90;;;;;;5072540;28;20444;-78
2021/03/18 06:17:20;;;;;;;15.75;10.85;;;4.50;99.90;;;;;;5093883;28;20028;-78
2021/03/18 06:19:45;;;;;;;13.68;11.13;;;5.10;99.90;;;;;;5093316;28;20068;-78
2021/03/18 06:22:11;;;;;;;15.50;10.52;;;5.20;99.90;;;;;;5069621;28;20029;-78
2021/03/18 06:24:48;;;;;;;13.88;10.02;;;4.90;99.90;;;;;;5091899;28;20020;-78
2021/03/18 06:27:21;;;;;;;15.57;10.70;;;5.10;99.90;;;;;;5088422;28;20099;-78
2021/03/18 06:29:46;;;;;;;14.32;11.20;;;5.00;99.90;;;;;;5081379;28;20483;-78
2021/03/18 06:32:12;;;;;;;14.32;11.35;;;4.50;99.90;;;;;;5093241;28;20020;-78
2021/03/18 06:34:51;;;;;;;16.38;11.05;;;4.90;99.90;;;;;;5081100;28;20036;-78
2021/03/18 06:37:38;;;;;;;15.40;10.70;;;4.40;99.90;;;;;;5076304;28;20411;-78
2021/03/18 06:40:26;;;;;;;17.05;11.80;;;4.30;99.90;;;;;;5074754;28;20403;-78
2021/03/18 06:42:55;;;;;;;15.70;11.10;;;4.30;99.90;;;;;;5091922;28;20016;-78
2021/03/18 06:45:21;;;;;;;15.32;10.80;;;4.20;99.90;;;;;;5092911;28;20040;-78
2021/03/18 06:47:48;;;;;;;17.20;11.63;;;4.30;99.90;;;;;;5093021;28;20020;-78
2021/03/18 06:50:16;;;;;;;14.73;10.57;;;4.20;99.90;;;;;;5093037;28;20142;-78
2021/03/18 06:52:44;;;;;;;16.17;11.00;;;4.30;99.90;;;;;;5092298;28;20020;-78
2021/03/18 06:55:12;;;;;;;17.60;11.95;;;4.20;99.90;;;;;;5092211;28;20111;-78
2021/03/18 06:57:38;;;;;;;14.35;10.77;;;4.30;99.90;;;;;;5092817;28;20109;-78
2021/03/18 07:00:09;;;;;;;15.00;11.40;;;4.70;99.90;;;;;;5080100;28;20052;-78
2021/03/18 07:02:42;;;;;;;14.55;10.77;;;4.40;99.90;;;;;;5083455;28;20028;-79
2021/03/18 07:05:25;;;;;;;16.50;10.73;;;4.50;99.90;;;;;;5081602;28;20043;-78
2021/03/18 07:07:51;;;;;;;14.82;10.98;;;4.30;99.90;;;;;;5087410;28;20403;-78
2021/03/18 07:10:31;;;;;;;16.13;11.43;;;4.50;99.90;;;;;;5092179;28;20027;-79
2021/03/18 07:13:23;;;;;;;15.70;11.55;;;4.60;99.90;;;;;;5074980;28;20032;-79
2021/03/18 07:15:50;;;;;;;16.33;11.43;;;4.50;99.90;;;;;;5054015;28;20377;-79
2021/03/18 07:18:16;;;;;;;15.48;10.98;;;4.70;99.90;;;;;;5072058;28;20449;-79
2021/03/18 07:21:11;;;;;;;18.90;13.07;;;4.40;99.90;;;;;;5075253;28;20035;-79
2021/03/18 07:23:38;;;;;;;21.98;14.73;;;4.50;99.90;;;;;;5076627;28;20081;-78
2021/03/18 07:26:15;;;;;;;18.40;12.10;;;5.00;99.90;;;;;;5062160;28;20020;-78
2021/03/18 07:28:43;;;;;;;17.45;13.07;;;4.50;99.90;;;;;;5096990;28;20058;-78
2021/03/18 07:31:11;;;;;;;18.23;12.93;;;4.50;99.90;;;;;;5097046;28;20085;-78
2021/03/18 07:33:37;;;;;;;17.17;13.50;;;4.40;99.90;;;;;;5096298;28;20020;-79
2021/03/18 07:36:04;;;;;;;16.10;11.82;;;4.50;99.90;;;;;;5096351;28;20024;-79
2021/03/18 07:38:31;;;;;;;16.90;12.23;;;4.30;99.90;;;;;;5078667;28;20404;-83
2021/03/18 07:40:57;;;;;;;20.40;13.52;;;4.80;99.90;;;;;;5096348;28;20065;-80
2021/03/18 07:43:26;;;;;;;16.42;12.18;;;4.50;99.90;;;;;;5096124;28;20024;-80
2021/03/18 07:45:53;;;;;;;18.75;13.02;;;4.40;99.90;;;;;;5096176;28;20499;-79
2021/03/18 07:48:23;;;;;;;17.67;11.95;;;5.20;99.90;;;;;;5096537;28;20028;-79
2021/03/18 07:50:50;;;;;;;19.75;12.68;;;4.50;99.90;;;;;;5096276;28;20476;-79
2021/03/18 07:53:18;;;;;;;17.50;12.60;;;4.60;99.90;;;;;;5096635;28;20024;-80
2021/03/18 07:55:48;;;;;;;16.60;12.10;;;4.40;99.90;;;;;;5096295;28;20027;-80
2021/03/18 07:58:14;;;;;;;19.52;12.73;;;4.90;99.90;;;;;;5085058;28;20060;-80
2021/03/18 08:00:45;;;;;;;17.20;11.52;;;4.90;99.90;;;;;;5058247;28;20480;-80
2021/03/18 08:03:20;;;;;;;20.00;12.48;;;5.30;99.90;;;;;;5057657;28;20562;-80
2021/03/18 08:05:46;;;;;;;16.52;11.55;;;5.30;99.90;;;;;;5076017;28;20024;-80
2021/03/18 08:08:31;;;;;;;18.95;12.85;;;4.90;99.90;;;;;;5076069;28;20044;-80
2021/03/18 08:11:12;;;;;;;16.38;11.70;;;5.30;99.90;;;;;;5076770;28;20461;-80
2021/03/18 08:13:40;;;;;;;18.23;12.32;;;5.30;99.90;;;;;;5095579;28;20392;-80
2021/03/18 08:16:09;;;;;;;15.57;12.15;;;4.90;99.90;;;;;;5095424;28;20074;-80
2021/03/18 08:18:37;;;;;;;16.40;12.65;;;5.10;99.90;;;;;;5095801;28;20586;-80
2021/03/18 08:21:06;;;;;;;17.50;13.13;;;4.90;99.90;;;;;;5095324;28;20032;-80
2021/03/18 08:23:32;;;;;;;14.60;11.65;;;5.50;99.90;;;;;;5077163;28;20036;-80
2021/03/18 08:26:03;;;;;;;15.85;11.25;;;5.40;99.90;;;;;;5095380;28;20097;-80
2021/03/18 08:28:48;;;;;;;16.35;10.75;;;5.30;99.90;;;;;;5095391;28;20055;-80
2021/03/18 08:31:21;;;;;;;15.77;10.57;;;5.70;99.90;;;;;;5094700;28;20032;-80
2021/03/18 08:33:55;;;;;;;16.58;11.68;;;5.20;99.90;;;;;;5089663;28;20025;-80
2021/03/18 08:36:23;;;;;;;15.70;11.55;;;5.90;99.90;;;;;;5074887;28;20458;-80
2021/03/18 08:38:58;;;;;;;14.25;10.68;;;5.70;99.90;;;;;;5074968;28;20021;-80
2021/03/18 08:41:56;;;;;;;14.80;10.02;;;6.00;99.90;;;;;;5074703;28;20035;-80
2021/03/18 08:44:31;;;;;;;15.73;10.93;;;6.00;99.90;;;;;;5069496;28;20032;-80
2021/03/18 08:47:00;;;;;;;14.73;10.27;;;6.50;99.90;;;;;;5074629;28;20115;-80
2021/03/18 08:49:30;;;;;;;14.10;10.57;;;6.20;99.90;;;;;;5074218;28;20017;-80
2021/03/18 08:51:59;;;;;;;13.43;10.45;;;6.30;99.90;;;;;;5074818;28;20381;-80
2021/03/18 08:54:40;;;;;;;15.05;10.77;;;6.50;99.90;;;;;;5074574;28;20052;-80
2021/03/18 08:57:25;;;;;;;14.20;10.45;;;6.30;99.90;;;;;;5074517;28;20028;-80
2021/03/18 08:59:54;;;;;;;16.25;10.27;;;6.30;99.90;;;;;;5074477;28;20396;-80
2021/03/18 09:02:34;;;;;;;12.75;10.35;;;6.20;99.90;;;;;;5073629;28;20082;-80
2021/03/18 09:05:01;;;;;;;13.13;10.40;;;6.20;99.90;;;;;;5074652;28;20431;-80
2021/03/18 09:07:29;;;;;;;12.85;10.32;;;6.20;99.90;;;;;;5074337;28;20036;-80
2021/03/18 09:10:05;;;;;;;12.95;10.27;;;6.30;99.90;;;;;;5074458;28;20020;-80
2021/03/18 09:12:37;;;;;;;14.98;10.23;;;6.40;99.90;;;;;;5074345;28;20035;-80
2021/03/18 09:15:32;;;;;;;14.60;10.18;;;6.80;99.90;;;;;;5074067;28;20552;-80
2021/03/18 09:18:18;;;;;;;15.27;10.23;;;6.80;99.90;;;;;;5071072;28;20044;-80
2021/03/18 09:20:48;;;;;;;14.35;9.60;;;6.50;99.90;;;;;;5074165;28;20028;-80
2021/03/18 09:23:15;;;;;;;13.23;10.32;;;6.40;99.90;;;;;;5073874;28;20059;-80
2021/03/18 09:25:42;;;;;;;15.60;10.20;;;7.10;99.90;;;;;;5073962;28;20021;-80
2021/03/18 09:28:09;;;;;;;11.05;9.07;;;14.50;99.90;;;;;;5073805;28;20465;-80
2021/03/18 09:30:41;;;;;;;12.70;9.23;;;12.80;99.90;;;;;;5074173;28;20024;-80
2021/03/18 09:33:26;;;;;;;10.18;8.43;;;13.90;99.90;;;;;;5073599;28;20036;-80
2021/03/18 09:35:56;;;;;;;13.00;8.93;;;13.00;99.90;;;;;;5073983;28;20032;-80
2021/03/18 09:38:25;;;;;;;10.27;9.15;;;11.00;99.90;;;;;;5073550;28;20085;-80
2021/03/18 09:40:53;;;;;;;10.65;9.35;;;9.50;99.90;;;;;;5073662;28;20028;-80
2021/03/18 09:43:20;;;;;;;10.98;9.15;;;8.90;99.90;;;;;;5072671;28;20515;-80
2021/03/18 09:46:02;;;;;;;12.65;9.25;;;8.70;99.90;;;;;;5073214;28;20091;-80
2021/03/18 09:48:32;;;;;;;13.15;9.90;;;8.30;99.90;;;;;;5073471;28;20029;-80
2021/03/18 09:51:14;;;;;;;11.65;9.35;;;7.70;99.90;;;;;;5073460;28;20027;-80
2021/03/18 09:53:42;;;;;;;12.52;9.35;;;7.30;99.90;;;;;;5073344;28;20029;-80
2021/03/18 09:56:13;;;;;;;13.18;10.45;;;7.10;99.90;;;;;;5073387;28;20024;-80
2021/03/18 09:58:40;;;;;;;14.52;9.93;;;7.30;99.90;;;;;;5073363;28;20472;-80
2021/03/18 10:01:16;;;;;;;11.52;9.40;;;6.70;99.90;;;;;;5072916;28;20044;-80
2021/03/18 10:03:54;;;;;;;11.57;9.48;;;7.50;99.90;;;;;;5072945;28;20048;-80
2021/03/18 10:06:47;;;;;;;12.68;9.45;;;7.40;99.90;;;;;;5073193;28;20028;-80
2021/03/18 10:09:32;;;;;;;11.27;9.65;;;7.20;99.90;;;;;;5073249;28;20494;-80
2021/03/18 10:12:02;;;;;;;9.85;8.85;;;7.00;99.90;;;;;;5073126;28;20425;-80
2021/03/18 10:14:30;;;;;;;10.68;9.15;;;7.10;99.90;;;;;;5072976;28;20116;-80
2021/03/18 10:16:58;;;;;;;11.68;8.88;;;7.40;99.90;;;;;;5072686;28;20548;-80
2021/03/18 10:19:28;;;;;;;12.77;9.00;;;7.40;99.90;;;;;;5072938;28;20029;-80
2021/03/18 10:21:54;;;;;;;11.75;9.02;;;7.70;99.90;;;;;;5073008;28;20380;-80
2021/03/18 10:24:20;;;;;;;10.50;8.88;;;8.30;99.90;;;;;;5072703;28;20032;-80
2021/03/18 10:26:47;;;;;;;11.57;9.30;;;9.40;99.90;;;;;;5072763;28;20070;-80
2021/03/18 10:29:13;;;;;;;9.20;7.95;;;9.90;99.90;;;;;;5072404;28;20070;-80
2021/03/18 10:31:40;;;;;;;9.13;8.15;;;9.70;99.90;;;;;;5072869;28;20115;-80
2021/03/18 10:34:20;;;;;;;10.13;8.75;;;10.70;99.90;;;;;;5062067;28;20024;-80
2021/03/18 10:36:45;;;;;;;10.02;8.85;;;14.60;99.90;;;;;;5092972;28;20032;-80
2021/03/18 10:39:13;;;;;;;8.98;7.65;;;13.30;99.90;;;;;;5092719;28;20100;-80
2021/03/18 10:41:57;;;;;;;9.65;8.30;;;14.70;99.90;;;;;;5092657;28;20035;-80
2021/03/18 10:44:35;;;;;;;9.48;8.40;;;11.90;99.90;;;;;;5092252;28;20567;-80
2021/03/18 10:47:17;;;;;;;8.50;7.43;;;11.00;99.90;;;;;;5092836;28;20024;-80
2021/03/18 10:50:05;;;;;;;8.82;7.93;;;10.20;99.90;;;;;;5092575;28;20369;-80
2021/03/18 10:52:32;;;;;;;9.77;6.88;;;10.20;99.90;;;;;;5092614;28;20020;-80
2021/03/18 10:54:58;;;;;;;8.13;7.30;;;10.10;99.90;;;;;;5092642;28;20103;-80
2021/03/18 10:57:25;;;;;;;8.20;7.40;;;10.90;99.90;;;;;;5092485;28;20426;-80
2021/03/18 10:59:58;;;;;;;8.20;6.88;;;12.10;99.90;;;;;;5092110;28;20028;-80
2021/03/18 11:02:28;;;;;;;8.75;7.28;;;17.50;99.90;;;;;;5092338;28;20059;-80
2021/03/18 11:04:55;;;;;;;6.97;6.03;;;22.70;99.90;;;;;;5092541;28;20050;-80
2021/03/18 11:07:21;;;;;;;8.90;7.05;;;21.20;99.90;;;;;;5092435;28;20027;-80
2021/03/18 11:10:05;;;;;;;7.30;6.63;;;19.50;99.90;;;;;;5092539;28;20028;-80
2021/03/18 11:12:31;;;;;;;7.20;6.28;;;24.70;99.90;;;;;;5092547;28;20089;-80
2021/03/18 11:14:56;;;;;;;7.95;7.25;;;23.70;99.90;;;;;;5092191;28;20024;-80
2021/03/18 11:17:28;;;;;;;7.75;6.88;;;24.70;99.90;;;;;;5092233;28;20032;-81
2021/03/18 11:20:14;;;;;;;7.13;6.50;;;26.90;99.90;;;;;;5092632;28;20383;-81
2021/03/18 11:22:41;;;;;;;7.18;6.47;;;21.20;99.90;;;;;;5092291;28;20028;-81
2021/03/18 11:25:08;;;;;;;7.30;6.60;;;18.50;99.90;;;;;;5090982;28;20012;-81
2021/03/18 11:27:37;;;;;;;8.65;7.40;;;18.30;99.90;;;;;;5087058;28;20028;-81
2021/03/18 11:30:07;;;;;;;6.30;5.70;;;19.20;99.90;;;;;;5071871;28;20027;-81
2021/03/18 11:32:33;;;;;;;7.55;6.78;;;19.50;99.90;;;;;;5083101;28;20016;-81
2021/03/18 11:35:00;;;;;;;7.32;6.63;;;17.60;99.90;;;;;;5082784;28;20024;-81
2021/03/18 11:37:27;;;;;;;7.10;6.40;;;15.20;99.90;;;;;;5091615;28;20074;-81
2021/03/18 11:39:53;;;;;;;7.57;6.88;;;13.80;99.90;;;;;;5091809;28;20017;-81
2021/03/18 11:42:19;;;;;;;7.07;6.38;;;20.30;99.90;;;;;;5090663;28;20115;-81
2021/03/18 11:44:45;;;;;;;7.35;6.07;;;20.40;99.90;;;;;;5091329;28;20481;-81
2021/03/18 11:47:15;;;;;;;7.28;6.57;;;17.30;99.90;;;;;;5071064;28;20112;-81
2021/03/18 11:49:44;;;;;;;6.97;6.38;;;16.80;99.90;;;;;;5077026;28;20517;-81
2021/03/18 11:52:11;;;;;;;6.38;5.82;;;14.60;99.90;;;;;;5085262;28;20103;-81
2021/03/18 11:54:37;;;;;;;5.97;5.38;;;14.00;99.90;;;;;;5081757;28;20477;-81
2021/03/18 11:57:03;;;;;;;7.05;6.35;;;14.00;99.90;;;;;;5076646;28;20455;-81
2021/03/18 11:59:29;;;;;;;7.47;6.60;;;13.10;99.90;;;;;;5087329;28;20024;-81
2021/03/18 12:01:55;;;;;;;7.95;6.60;;;12.60;99.90;;;;;;5078406;28;20476;-81
2021/03/18 12:04:21;;;;;;;7.97;7.18;;;11.90;99.90;;;;;;5087155;28;20044;-81
2021/03/18 12:06:47;;;;;;;7.07;6.38;;;11.60;99.90;;;;;;5062510;28;20024;-81
2021/03/18 12:09:13;;;;;;;7.40;6.70;;;11.50;99.90;;;;;;5081302;28;20020;-81
2021/03/18 12:11:39;;;;;;;7.65;6.85;;;11.20;99.90;;;;;;5087090;28;20506;-81
2021/03/18 12:14:04;;;;;;;8.05;6.80;;;10.60;99.90;;;;;;5094027;28;20031;-81
2021/03/18 12:16:30;;;;;;;7.75;6.95;;;11.30;99.90;;;;;;5094876;28;20032;-81
2021/03/18 12:18:56;;;;;;;8.43;6.85;;;11.20;99.90;;;;;;5095239;28;20031;-81
2021/03/18 12:21:21;;;;;;;8.77;6.25;;;11.40;99.90;;;;;;5095171;28;20085;-81
2021/03/18 12:23:47;;;;;;;9.95;6.35;;;12.00;99.90;;;;;;5093130;28;20492;-81
2021/03/18 12:26:13;;;;;;;7.80;6.78;;;11.30;99.90;;;;;;5076528;28;20388;-81
2021/03/18 12:28:39;;;;;;;6.82;5.88;;;11.00;99.90;;;;;;5095179;28;20020;-81
2021/03/18 12:31:05;;;;;;;7.93;6.32;;;11.10;99.90;;;;;;5077082;28;20027;-81
2021/03/18 12:33:31;;;;;;;12.13;6.13;;;10.80;99.90;;;;;;5094986;28;20036;-81
2021/03/18 12:35:57;;;;;;;6.70;5.78;;;11.30;99.90;;;;;;5095425;28;20153;-81
2021/03/18 12:38:23;;;;;;;5.57;4.93;;;10.80;99.90;;;;;;5095059;28;20031;-81
2021/03/18 12:40:51;;;;;;;7.38;4.95;;;10.40;99.90;;;;;;5094604;28;20039;-81
2021/03/18 12:43:17;;;;;;;5.30;4.72;;;10.20;99.90;;;;;;5095166;28;20548;-81
2021/03/18 12:45:43;;;;;;;5.32;4.75;;;10.30;99.90;;;;;;5094903;28;20020;-81
2021/03/18 12:48:09;;;;;;;6.28;4.53;;;10.30;99.90;;;;;;5095003;28;20024;-81
2021/03/18 12:50:36;;;;;;;5.03;3.95;;;10.40;99.90;;;;;;5094759;28;20170;-81
2021/03/18 12:53:02;;;;;;;5.35;4.47;;;10.60;99.90;;;;;;5094748;28;20039;-81
2021/03/18 12:55:28;;;;;;;4.93;4.30;;;11.40;99.90;;;;;;5094434;28;20032;-81
2021/03/18 12:57:55;;;;;;;6.20;4.72;;;13.80;99.90;;;;;;5094990;28;20106;-81
2021/03/18 13:00:26;;;;;;;6.38;5.22;;;14.10;99.90;;;;;;5094689;28;20361;-81